CDT,Max TemperatureF,Mean TemperatureF,Min TemperatureF,Max Dew PointF,MeanDew PointF,Min DewpointF,Max Humidity, Mean Humidity, Min Humidity, Max Sea Level PressureIn, Mean Sea Level PressureIn, Min Sea Level PressureIn, Max VisibilityMiles, Mean VisibilityMiles, Min VisibilityMiles, Max Wind SpeedMPH, Mean Wind SpeedMPH, Max Gust SpeedMPH,PrecipitationIn, CloudCover, Events, WindDirDegrees
2013-3-1,24,18,12,21,15,10,100,85,69,30.34,30.28,30.18,10,10,7,13,10,,0.00,6,Snow,345
2013-3-2,28,18,8,21,14,5,100,80,43,30.30,30.22,30.07,10,9,0,9,2,,0.00,4,Fog-Snow,162
2013-3-3,32,26,21,25,21,19,93,82,69,30.07,29.93,29.82,10,9,1,24,11,29,0.00,3,Snow,127
2013-3-4,28,26,24,28,26,21,100,95,86,29.95,29.84,29.75,10,3,1,21,14,28,0.02,8,Snow,135
2013-3-5,28,22,15,28,21,16,100,90,80,30.29,30.07,29.90,10,5,1,29,14,33,0.00,7,Snow,302
2013-3-6,24,22,19,19,18,18,93,87,74,30.40,30.34,30.28,10,10,5,21,10,21,0.00,8,Snow,346
2013-3-7,30,21,12,21,18,10,100,87,69,30.31,30.24,30.16,10,9,4,21,9,24,0.00,2,,132
2013-3-8,35,27,19,32,25,18,100,86,64,30.22,30.14,29.97,7,5,2,18,7,23,0.16,2,,135
2013-3-9,37,34,30,37,34,30,100,99,93,29.96,29.75,29.63,5,2,0,23,11,28,0.92,8,Fog-Rain-Snow,138
2013-3-10,30,26,19,30,24,19,100,95,86,29.93,29.90,29.86,10,6,1,32,25,38,0.00,8,Snow,337
2013-3-11,28,22,17,21,18,16,100,84,69,29.88,29.83,29.78,10,10,10,24,18,32,0.00,7,,311
2013-3-12,28,24,19,27,20,16,100,82,69,30.23,30.02,29.86,10,9,2,30,19,37,0.00,7,Snow,302
2013-3-13,30,22,15,23,18,12,93,80,64,30.37,30.29,30.18,10,10,10,22,11,30,0.00,1,,266
2013-3-14,42,34,26,36,30,21,100,82,69,30.16,30.06,29.99,10,9,3,15,6,21,0.00,2,,189
2013-3-15,35,32,30,36,32,30,100,95,87,29.98,29.87,29.75,10,3,0,12,4,,0.00,7,Fog,12
2013-3-16,30,21,12,30,18,9,100,90,79,30.22,30.09,29.86,10,7,2,20,14,25,0.00,6,Snow,331
2013-3-17,30,19,8,28,15,3,93,79,64,30.22,30.00,29.70,10,10,10,25,13,33,0.00,4,,104
2013-3-18,33,22,12,32,15,5,100,80,68,29.92,29.74,29.60,10,8,2,34,23,43,0.02,7,Snow,264
2013-3-19,24,16,8,14,7,1,85,71,58,30.26,30.11,29.93,10,10,5,25,17,31,0.00,3,Snow,305
2013-3-20,21,14,6,9,5,1,85,70,53,30.29,30.22,30.12,10,10,7,26,17,31,0.00,0,Snow,309
2013-3-21,26,16,5,16,8,1,86,73,51,30.12,30.04,29.98,10,10,10,12,5,,0.00,0,,31
2013-3-22,32,22,12,21,15,9,93,76,55,30.08,30.03,30.00,10,10,10,8,1,10,0.00,3,,37
2013-3-23,30,26,21,21,18,14,93,74,59,30.15,30.11,30.04,10,10,10,15,5,17,0.00,6,,341
2013-3-24,28,24,19,27,22,18,100,89,80,30.11,30.03,29.97,10,6,2,23,16,28,0.00,7,Snow,325
2013-3-25,33,27,21,25,21,18,100,83,69,30.27,30.15,30.04,10,10,4,23,18,28,0.00,4,Snow,324
2013-3-26,37,26,15,27,20,12,100,78,52,30.30,30.27,30.23,10,10,10,16,9,21,0.00,1,,333
2013-3-27,42,30,19,28,25,19,100,76,53,30.30,30.27,30.24,10,10,10,10,3,,0.00,0,,126
2013-3-28,51,40,28,36,32,27,93,76,50,30.28,30.24,30.20,10,10,7,14,7,18,0.00,3,,137
2013-3-29,57,45,33,43,37,32,93,74,54,30.23,30.15,30.00,10,9,5,17,7,24,0.00,4,,164
2013-3-30,53,44,35,45,40,34,100,79,62,29.99,29.92,29.89,10,8,0,20,12,24,0.00,3,Fog-Thunderstorm,275
2013-3-31,37,29,21,36,25,16,100,78,48,30.14,29.97,29.87,10,8,0,29,16,38,0.00,4,Fog,306